Ann Arbor Township, Michigan
Current Conditions -  °F | °C
As of 2:53 AM on Friday 19 Dec 2014 (Local Time) from KARB Reporting Station
Overcast Overcast  
Wind Chill: 22°   Ceiling: 700
Heat Index: 29°   Visibility: 7mi
Dew Point: 27°   Wind: 7mph
Humidity: 92%   Direction: 40°NE
Pressure: 30.19"   Gusts: NA
Location:  42.3281°N, 83.7037°W
Report Text: KARB 190753Z AUTO 04006KT 7SM BKN007 OVC012 M02/M03 A3019 RMK AO2 CIG 005V009 SLP234 I1000 T10171028
Loading
Personal Weather Stations






























Interactive Weather Map New forecast layout! Learn more

10-Day Weather Forecast

Advertisements
Track Severe Weather on mobile